sensor_id;sensor_type;location;lat;lon;timestamp;P1;durP1;ratioP1;P2;durP2;ratioP2
24677;SDS011;12800;53.094;8.778;2022-10-16T00:01:48;2.88;;;2.00;;
24677;SDS011;12800;53.094;8.778;2022-10-16T00:04:13;4.90;;;1.40;;
24677;SDS011;12800;53.094;8.778;2022-10-16T00:06:39;4.07;;;1.77;;
24677;SDS011;12800;53.094;8.778;2022-10-16T00:09:05;49.92;;;28.90;;
24677;SDS011;12800;53.094;8.778;2022-10-16T00:11:32;54.65;;;33.50;;
24677;SDS011;12800;53.094;8.778;2022-10-16T00:14:02;16.95;;;12.10;;
24677;SDS011;12800;53.094;8.778;2022-10-16T00:16:29;5.88;;;2.78;;
24677;SDS011;12800;53.094;8.778;2022-10-16T00:18:55;4.30;;;1.70;;
24677;SDS011;12800;53.094;8.778;2022-10-16T00:21:22;3.55;;;1.70;;
24677;SDS011;12800;53.094;8.778;2022-10-16T00:23:54;3.58;;;1.58;;
24677;SDS011;12800;53.094;8.778;2022-10-16T00:26:21;3.80;;;1.38;;
24677;SDS011;12800;53.094;8.778;2022-10-16T00:28:48;3.92;;;1.40;;
24677;SDS011;12800;53.094;8.778;2022-10-16T00:31:15;3.67;;;1.63;;
24677;SDS011;12800;53.094;8.778;2022-10-16T00:33:42;3.22;;;1.20;;
24677;SDS011;12800;53.094;8.778;2022-10-16T00:36:10;3.95;;;1.27;;
24677;SDS011;12800;53.094;8.778;2022-10-16T00:38:38;1.75;;;1.30;;
24677;SDS011;12800;53.094;8.778;2022-10-16T00:41:04;1.63;;;1.10;;
24677;SDS011;12800;53.094;8.778;2022-10-16T00:43:49;4.57;;;1.55;;
24677;SDS011;12800;53.094;8.778;2022-10-16T00:46:21;1.77;;;1.30;;
24677;SDS011;12800;53.094;8.778;2022-10-16T00:51:22;3.00;;;1.48;;
24677;SDS011;12800;53.094;8.778;2022-10-16T00:53:51;3.78;;;1.45;;
24677;SDS011;12800;53.094;8.778;2022-10-16T00:56:17;1.40;;;1.13;;
24677;SDS011;12800;53.094;8.778;2022-10-16T00:58:43;4.20;;;1.65;;
24677;SDS011;12800;53.094;8.778;2022-10-16T01:01:09;3.75;;;1.70;;
24677;SDS011;12800;53.094;8.778;2022-10-16T01:03:35;4.45;;;2.55;;
24677;SDS011;12800;53.094;8.778;2022-10-16T01:06:05;6.15;;;1.40;;
24677;SDS011;12800;53.094;8.778;2022-10-16T01:08:44;3.73;;;1.50;;
24677;SDS011;12800;53.094;8.778;2022-10-16T01:11:53;3.83;;;1.67;;
24677;SDS011;12800;53.094;8.778;2022-10-16T01:14:19;2.47;;;1.88;;
24677;SDS011;12800;53.094;8.778;2022-10-16T01:17:12;2.80;;;1.40;;
24677;SDS011;12800;53.094;8.778;2022-10-16T01:22:14;2.42;;;1.50;;
24677;SDS011;12800;53.094;8.778;2022-10-16T01:24:43;2.47;;;1.30;;
24677;SDS011;12800;53.094;8.778;2022-10-16T01:27:18;4.87;;;1.63;;
24677;SDS011;12800;53.094;8.778;2022-10-16T01:32:27;4.28;;;1.30;;
24677;SDS011;12800;53.094;8.778;2022-10-16T01:35:46;1.97;;;1.53;;
24677;SDS011;12800;53.094;8.778;2022-10-16T01:40:33;4.37;;;1.57;;
24677;SDS011;12800;53.094;8.778;2022-10-16T01:43:22;5.40;;;1.48;;
24677;SDS011;12800;53.094;8.778;2022-10-16T01:45:56;1.63;;;1.20;;
24677;SDS011;12800;53.094;8.778;2022-10-16T01:48:22;4.30;;;1.50;;
24677;SDS011;12800;53.094;8.778;2022-10-16T01:50:55;2.23;;;1.30;;
24677;SDS011;12800;53.094;8.778;2022-10-16T01:53:31;1.95;;;1.42;;
24677;SDS011;12800;53.094;8.778;2022-10-16T01:55:58;6.15;;;1.77;;
24677;SDS011;12800;53.094;8.778;2022-10-16T01:58:25;1.98;;;1.40;;
24677;SDS011;12800;53.094;8.778;2022-10-16T02:00:59;2.00;;;1.38;;
24677;SDS011;12800;53.094;8.778;2022-10-16T02:03:25;3.03;;;1.55;;
24677;SDS011;12800;53.094;8.778;2022-10-16T02:05:55;4.55;;;1.80;;
24677;SDS011;12800;53.094;8.778;2022-10-16T02:08:22;5.05;;;1.83;;
24677;SDS011;12800;53.094;8.778;2022-10-16T02:10:50;3.77;;;1.57;;
24677;SDS011;12800;53.094;8.778;2022-10-16T02:13:17;4.23;;;1.60;;
24677;SDS011;12800;53.094;8.778;2022-10-16T02:15:47;9.20;;;5.43;;
24677;SDS011;12800;53.094;8.778;2022-10-16T02:18:13;52.20;;;32.93;;
24677;SDS011;12800;53.094;8.778;2022-10-16T02:20:59;33.93;;;21.50;;
24677;SDS011;12800;53.094;8.778;2022-10-16T02:23:45;12.30;;;7.05;;
24677;SDS011;12800;53.094;8.778;2022-10-16T02:26:22;7.47;;;2.77;;
24677;SDS011;12800;53.094;8.778;2022-10-16T02:29:00;5.67;;;1.87;;
24677;SDS011;12800;53.094;8.778;2022-10-16T02:31:30;9.15;;;2.08;;
24677;SDS011;12800;53.094;8.778;2022-10-16T02:33:59;4.20;;;1.80;;
24677;SDS011;12800;53.094;8.778;2022-10-16T02:36:26;4.03;;;1.60;;
24677;SDS011;12800;53.094;8.778;2022-10-16T02:38:52;2.23;;;1.53;;
24677;SDS011;12800;53.094;8.778;2022-10-16T02:41:20;3.40;;;1.40;;
24677;SDS011;12800;53.094;8.778;2022-10-16T02:43:47;1.63;;;1.42;;
24677;SDS011;12800;53.094;8.778;2022-10-16T02:46:12;2.97;;;1.50;;
24677;SDS011;12800;53.094;8.778;2022-10-16T02:48:38;3.40;;;1.40;;
24677;SDS011;12800;53.094;8.778;2022-10-16T02:51:04;3.97;;;1.50;;
24677;SDS011;12800;53.094;8.778;2022-10-16T02:53:30;4.90;;;1.53;;
24677;SDS011;12800;53.094;8.778;2022-10-16T02:55:55;3.17;;;1.67;;
24677;SDS011;12800;53.094;8.778;2022-10-16T02:58:21;2.77;;;1.40;;
24677;SDS011;12800;53.094;8.778;2022-10-16T03:00:46;7.77;;;1.80;;
24677;SDS011;12800;53.094;8.778;2022-10-16T03:03:12;4.10;;;1.27;;
24677;SDS011;12800;53.094;8.778;2022-10-16T03:05:38;1.40;;;1.23;;
24677;SDS011;12800;53.094;8.778;2022-10-16T03:08:03;5.30;;;1.70;;
24677;SDS011;12800;53.094;8.778;2022-10-16T03:10:29;3.60;;;1.70;;
24677;SDS011;12800;53.094;8.778;2022-10-16T03:12:54;4.47;;;1.80;;
24677;SDS011;12800;53.094;8.778;2022-10-16T03:15:20;5.70;;;1.47;;
24677;SDS011;12800;53.094;8.778;2022-10-16T03:17:45;4.97;;;1.80;;
24677;SDS011;12800;53.094;8.778;2022-10-16T03:20:11;5.67;;;2.03;;
24677;SDS011;12800;53.094;8.778;2022-10-16T03:22:37;3.80;;;2.03;;
24677;SDS011;12800;53.094;8.778;2022-10-16T03:25:02;2.77;;;1.90;;
24677;SDS011;12800;53.094;8.778;2022-10-16T03:27:28;3.87;;;1.90;;
24677;SDS011;12800;53.094;8.778;2022-10-16T03:29:54;4.07;;;2.40;;
24677;SDS011;12800;53.094;8.778;2022-10-16T03:32:20;5.57;;;1.90;;
24677;SDS011;12800;53.094;8.778;2022-10-16T03:34:46;3.87;;;1.80;;
24677;SDS011;12800;53.094;8.778;2022-10-16T03:37:12;4.17;;;2.10;;
24677;SDS011;12800;53.094;8.778;2022-10-16T03:39:37;6.60;;;2.03;;
24677;SDS011;12800;53.094;8.778;2022-10-16T03:42:03;2.22;;;1.65;;
24677;SDS011;12800;53.094;8.778;2022-10-16T03:44:29;4.97;;;1.90;;
24677;SDS011;12800;53.094;8.778;2022-10-16T03:46:55;5.57;;;2.17;;
24677;SDS011;12800;53.094;8.778;2022-10-16T03:49:21;4.03;;;2.10;;
24677;SDS011;12800;53.094;8.778;2022-10-16T03:51:46;2.47;;;2.03;;
24677;SDS011;12800;53.094;8.778;2022-10-16T03:54:12;4.23;;;1.80;;
24677;SDS011;12800;53.094;8.778;2022-10-16T03:56:38;3.77;;;1.93;;
24677;SDS011;12800;53.094;8.778;2022-10-16T03:59:03;7.00;;;2.50;;
24677;SDS011;12800;53.094;8.778;2022-10-16T04:01:29;6.97;;;2.70;;
24677;SDS011;12800;53.094;8.778;2022-10-16T04:03:55;4.97;;;2.50;;
24677;SDS011;12800;53.094;8.778;2022-10-16T04:06:21;4.00;;;2.47;;
24677;SDS011;12800;53.094;8.778;2022-10-16T04:08:46;4.03;;;2.83;;
24677;SDS011;12800;53.094;8.778;2022-10-16T04:11:12;2.67;;;2.30;;
24677;SDS011;12800;53.094;8.778;2022-10-16T04:13:37;5.43;;;2.83;;
24677;SDS011;12800;53.094;8.778;2022-10-16T04:16:04;6.67;;;4.27;;
24677;SDS011;12800;53.094;8.778;2022-10-16T04:18:29;6.97;;;3.23;;
24677;SDS011;12800;53.094;8.778;2022-10-16T04:20:55;5.77;;;3.93;;
24677;SDS011;12800;53.094;8.778;2022-10-16T04:23:21;5.20;;;2.93;;
24677;SDS011;12800;53.094;8.778;2022-10-16T04:25:48;7.90;;;3.70;;
24677;SDS011;12800;53.094;8.778;2022-10-16T04:28:13;6.20;;;3.80;;
24677;SDS011;12800;53.094;8.778;2022-10-16T04:30:39;5.63;;;3.83;;
24677;SDS011;12800;53.094;8.778;2022-10-16T04:33:04;5.80;;;3.53;;
24677;SDS011;12800;53.094;8.778;2022-10-16T04:35:30;7.10;;;4.23;;
24677;SDS011;12800;53.094;8.778;2022-10-16T04:37:59;6.60;;;4.37;;
24677;SDS011;12800;53.094;8.778;2022-10-16T04:40:24;8.87;;;4.33;;
24677;SDS011;12800;53.094;8.778;2022-10-16T04:42:50;7.07;;;4.37;;
24677;SDS011;12800;53.094;8.778;2022-10-16T04:45:16;5.87;;;4.10;;
24677;SDS011;12800;53.094;8.778;2022-10-16T04:47:41;6.00;;;3.90;;
24677;SDS011;12800;53.094;8.778;2022-10-16T04:50:07;8.27;;;4.37;;
24677;SDS011;12800;53.094;8.778;2022-10-16T04:52:33;9.10;;;4.60;;
24677;SDS011;12800;53.094;8.778;2022-10-16T04:54:58;8.77;;;4.97;;
24677;SDS011;12800;53.094;8.778;2022-10-16T04:57:27;9.93;;;5.43;;
24677;SDS011;12800;53.094;8.778;2022-10-16T04:59:53;9.50;;;4.70;;
24677;SDS011;12800;53.094;8.778;2022-10-16T05:02:19;9.43;;;4.85;;
24677;SDS011;12800;53.094;8.778;2022-10-16T05:04:45;12.20;;;5.70;;
24677;SDS011;12800;53.094;8.778;2022-10-16T05:07:11;8.43;;;5.03;;
24677;SDS011;12800;53.094;8.778;2022-10-16T05:09:36;7.97;;;5.50;;
24677;SDS011;12800;53.094;8.778;2022-10-16T05:12:02;10.45;;;6.38;;
24677;SDS011;12800;53.094;8.778;2022-10-16T05:14:28;8.50;;;5.67;;
24677;SDS011;12800;53.094;8.778;2022-10-16T05:16:54;10.00;;;6.00;;
24677;SDS011;12800;53.094;8.778;2022-10-16T05:19:20;8.17;;;6.53;;
24677;SDS011;12800;53.094;8.778;2022-10-16T05:21:45;8.93;;;5.93;;
24677;SDS011;12800;53.094;8.778;2022-10-16T05:24:11;9.60;;;5.73;;
24677;SDS011;12800;53.094;8.778;2022-10-16T05:26:37;11.33;;;6.13;;
24677;SDS011;12800;53.094;8.778;2022-10-16T05:29:02;9.83;;;5.67;;
24677;SDS011;12800;53.094;8.778;2022-10-16T05:31:28;6.77;;;5.77;;
24677;SDS011;12800;53.094;8.778;2022-10-16T05:34:00;10.13;;;6.45;;
24677;SDS011;12800;53.094;8.778;2022-10-16T05:36:26;8.00;;;6.07;;
24677;SDS011;12800;53.094;8.778;2022-10-16T05:38:51;12.33;;;6.93;;
24677;SDS011;12800;53.094;8.778;2022-10-16T05:41:17;7.33;;;5.70;;
24677;SDS011;12800;53.094;8.778;2022-10-16T05:43:49;8.43;;;6.05;;
24677;SDS011;12800;53.094;8.778;2022-10-16T05:46:15;9.70;;;6.68;;
24677;SDS011;12800;53.094;8.778;2022-10-16T05:48:41;9.73;;;6.10;;
24677;SDS011;12800;53.094;8.778;2022-10-16T05:51:07;8.07;;;6.10;;
24677;SDS011;12800;53.094;8.778;2022-10-16T05:53:36;10.85;;;6.40;;
24677;SDS011;12800;53.094;8.778;2022-10-16T05:56:03;10.17;;;6.70;;
24677;SDS011;12800;53.094;8.778;2022-10-16T05:58:31;11.10;;;6.17;;
24677;SDS011;12800;53.094;8.778;2022-10-16T06:03:35;10.90;;;6.80;;
24677;SDS011;12800;53.094;8.778;2022-10-16T06:08:36;12.55;;;6.53;;
24677;SDS011;12800;53.094;8.778;2022-10-16T06:11:03;11.13;;;6.32;;
24677;SDS011;12800;53.094;8.778;2022-10-16T06:13:31;10.67;;;6.27;;
24677;SDS011;12800;53.094;8.778;2022-10-16T06:15:57;9.57;;;5.97;;
24677;SDS011;12800;53.094;8.778;2022-10-16T06:18:24;8.18;;;5.55;;
24677;SDS011;12800;53.094;8.778;2022-10-16T06:20:51;8.07;;;6.38;;
24677;SDS011;12800;53.094;8.778;2022-10-16T06:23:16;9.97;;;5.90;;
24677;SDS011;12800;53.094;8.778;2022-10-16T06:25:42;16.25;;;5.82;;
24677;SDS011;12800;53.094;8.778;2022-10-16T06:28:07;9.75;;;6.68;;
24677;SDS011;12800;53.094;8.778;2022-10-16T06:30:33;9.90;;;6.47;;
24677;SDS011;12800;53.094;8.778;2022-10-16T06:32:58;8.25;;;5.78;;
24677;SDS011;12800;53.094;8.778;2022-10-16T06:35:24;10.10;;;6.75;;
24677;SDS011;12800;53.094;8.778;2022-10-16T06:37:49;9.03;;;5.97;;
24677;SDS011;12800;53.094;8.778;2022-10-16T06:40:17;10.95;;;5.90;;
24677;SDS011;12800;53.094;8.778;2022-10-16T06:42:42;8.37;;;6.50;;
24677;SDS011;12800;53.094;8.778;2022-10-16T06:45:08;9.30;;;5.28;;
24677;SDS011;12800;53.094;8.778;2022-10-16T06:47:34;8.35;;;6.32;;
24677;SDS011;12800;53.094;8.778;2022-10-16T06:50:00;9.10;;;5.80;;
24677;SDS011;12800;53.094;8.778;2022-10-16T06:52:27;7.43;;;6.13;;
24677;SDS011;12800;53.094;8.778;2022-10-16T06:54:53;12.50;;;6.07;;
24677;SDS011;12800;53.094;8.778;2022-10-16T06:57:19;9.27;;;5.70;;
24677;SDS011;12800;53.094;8.778;2022-10-16T06:59:44;8.50;;;5.50;;
24677;SDS011;12800;53.094;8.778;2022-10-16T07:02:10;8.63;;;5.30;;
24677;SDS011;12800;53.094;8.778;2022-10-16T07:04:35;9.50;;;6.28;;
24677;SDS011;12800;53.094;8.778;2022-10-16T07:07:01;7.97;;;6.00;;
24677;SDS011;12800;53.094;8.778;2022-10-16T07:09:27;8.55;;;5.75;;
24677;SDS011;12800;53.094;8.778;2022-10-16T07:11:53;9.02;;;5.82;;
24677;SDS011;12800;53.094;8.778;2022-10-16T07:14:19;8.00;;;6.05;;
24677;SDS011;12800;53.094;8.778;2022-10-16T07:16:46;7.82;;;5.35;;
24677;SDS011;12800;53.094;8.778;2022-10-16T07:19:13;8.73;;;5.78;;
24677;SDS011;12800;53.094;8.778;2022-10-16T07:21:40;7.32;;;5.57;;
24677;SDS011;12800;53.094;8.778;2022-10-16T07:24:09;6.93;;;5.43;;
24677;SDS011;12800;53.094;8.778;2022-10-16T07:26:37;9.52;;;5.60;;
24677;SDS011;12800;53.094;8.778;2022-10-16T07:29:04;10.88;;;5.47;;
24677;SDS011;12800;53.094;8.778;2022-10-16T07:31:31;8.00;;;4.68;;
24677;SDS011;12800;53.094;8.778;2022-10-16T07:33:58;8.20;;;5.22;;
24677;SDS011;12800;53.094;8.778;2022-10-16T07:36:25;6.72;;;4.72;;
24677;SDS011;12800;53.094;8.778;2022-10-16T07:38:51;7.38;;;4.93;;
24677;SDS011;12800;53.094;8.778;2022-10-16T07:41:17;8.32;;;5.35;;
24677;SDS011;12800;53.094;8.778;2022-10-16T07:43:48;6.28;;;5.00;;
24677;SDS011;12800;53.094;8.778;2022-10-16T07:46:14;6.53;;;4.55;;
24677;SDS011;12800;53.094;8.778;2022-10-16T07:48:41;6.53;;;5.32;;
24677;SDS011;12800;53.094;8.778;2022-10-16T07:51:10;9.88;;;6.22;;
24677;SDS011;12800;53.094;8.778;2022-10-16T07:53:36;39.58;;;29.45;;
24677;SDS011;12800;53.094;8.778;2022-10-16T07:56:05;23.55;;;16.80;;
24677;SDS011;12800;53.094;8.778;2022-10-16T07:58:32;33.53;;;23.63;;
24677;SDS011;12800;53.094;8.778;2022-10-16T08:01:05;19.60;;;14.35;;
24677;SDS011;12800;53.094;8.778;2022-10-16T08:03:32;41.03;;;29.50;;
24677;SDS011;12800;53.094;8.778;2022-10-16T08:05:59;51.20;;;35.40;;
24677;SDS011;12800;53.094;8.778;2022-10-16T08:08:25;19.48;;;13.85;;
24677;SDS011;12800;53.094;8.778;2022-10-16T08:10:51;7.85;;;5.72;;
24677;SDS011;12800;53.094;8.778;2022-10-16T08:13:17;9.52;;;6.10;;
24677;SDS011;12800;53.094;8.778;2022-10-16T08:15:43;6.90;;;5.65;;
24677;SDS011;12800;53.094;8.778;2022-10-16T08:18:10;8.30;;;4.07;;
24677;SDS011;12800;53.094;8.778;2022-10-16T08:20:37;6.78;;;3.70;;
24677;SDS011;12800;53.094;8.778;2022-10-16T08:23:04;5.95;;;3.80;;
24677;SDS011;12800;53.094;8.778;2022-10-16T08:25:30;5.85;;;3.90;;
24677;SDS011;12800;53.094;8.778;2022-10-16T08:27:55;5.63;;;3.88;;
24677;SDS011;12800;53.094;8.778;2022-10-16T08:30:21;6.57;;;3.60;;
24677;SDS011;12800;53.094;8.778;2022-10-16T08:32:48;4.55;;;3.10;;
24677;SDS011;12800;53.094;8.778;2022-10-16T08:35:14;6.15;;;3.92;;
24677;SDS011;12800;53.094;8.778;2022-10-16T08:37:41;8.10;;;4.47;;
24677;SDS011;12800;53.094;8.778;2022-10-16T08:40:11;6.47;;;4.85;;
24677;SDS011;12800;53.094;8.778;2022-10-16T08:48:17;4.95;;;3.42;;
24677;SDS011;12800;53.094;8.778;2022-10-16T08:50:51;5.65;;;4.05;;
24677;SDS011;12800;53.094;8.778;2022-10-16T08:53:20;4.45;;;2.47;;
24677;SDS011;12800;53.094;8.778;2022-10-16T08:55:55;7.15;;;2.88;;
24677;SDS011;12800;53.094;8.778;2022-10-16T08:58:26;7.35;;;3.33;;
24677;SDS011;12800;53.094;8.778;2022-10-16T09:00:54;5.10;;;3.08;;
24677;SDS011;12800;53.094;8.778;2022-10-16T09:03:28;6.82;;;4.07;;
24677;SDS011;12800;53.094;8.778;2022-10-16T09:06:36;5.45;;;3.08;;
24677;SDS011;12800;53.094;8.778;2022-10-16T09:15:07;6.95;;;3.63;;
24677;SDS011;12800;53.094;8.778;2022-10-16T09:17:55;6.32;;;2.13;;
24677;SDS011;12800;53.094;8.778;2022-10-16T09:23:29;4.93;;;1.70;;
24677;SDS011;12800;53.094;8.778;2022-10-16T09:25:58;5.88;;;1.85;;
24677;SDS011;12800;53.094;8.778;2022-10-16T09:28:24;5.38;;;1.80;;
24677;SDS011;12800;53.094;8.778;2022-10-16T09:30:50;2.45;;;1.40;;
24677;SDS011;12800;53.094;8.778;2022-10-16T09:33:17;5.18;;;1.38;;
24677;SDS011;12800;53.094;8.778;2022-10-16T09:35:48;2.83;;;1.20;;
24677;SDS011;12800;53.094;8.778;2022-10-16T09:38:24;2.63;;;1.40;;
24677;SDS011;12800;53.094;8.778;2022-10-16T09:40:55;2.30;;;0.93;;
24677;SDS011;12800;53.094;8.778;2022-10-16T09:46:05;4.40;;;1.75;;
24677;SDS011;12800;53.094;8.778;2022-10-16T09:48:39;3.40;;;1.70;;
24677;SDS011;12800;53.094;8.778;2022-10-16T09:51:42;5.53;;;1.30;;
24677;SDS011;12800;53.094;8.778;2022-10-16T09:56:34;4.18;;;2.05;;
24677;SDS011;12800;53.094;8.778;2022-10-16T09:59:12;6.65;;;1.55;;
24677;SDS011;12800;53.094;8.778;2022-10-16T10:04:09;11.75;;;7.15;;
24677;SDS011;12800;53.094;8.778;2022-10-16T10:06:48;22.58;;;14.77;;
24677;SDS011;12800;53.094;8.778;2022-10-16T10:09:26;16.10;;;7.75;;
24677;SDS011;12800;53.094;8.778;2022-10-16T10:12:02;3.42;;;1.60;;
24677;SDS011;12800;53.094;8.778;2022-10-16T10:17:21;4.65;;;1.55;;
24677;SDS011;12800;53.094;8.778;2022-10-16T10:19:58;5.10;;;1.45;;
24677;SDS011;12800;53.094;8.778;2022-10-16T10:22:41;4.43;;;1.60;;
24677;SDS011;12800;53.094;8.778;2022-10-16T10:39:15;3.35;;;1.30;;
24677;SDS011;12800;53.094;8.778;2022-10-16T10:41:55;9.88;;;1.35;;
24677;SDS011;12800;53.094;8.778;2022-10-16T10:47:30;17.92;;;9.25;;
24677;SDS011;12800;53.094;8.778;2022-10-16T10:50:12;5.38;;;2.10;;
24677;SDS011;12800;53.094;8.778;2022-10-16T10:55:56;3.72;;;1.23;;
24677;SDS011;12800;53.094;8.778;2022-10-16T11:01:22;3.13;;;1.65;;
24677;SDS011;12800;53.094;8.778;2022-10-16T11:04:23;4.53;;;1.30;;
24677;SDS011;12800;53.094;8.778;2022-10-16T11:07:00;2.83;;;1.27;;
24677;SDS011;12800;53.094;8.778;2022-10-16T11:09:34;4.88;;;1.98;;
24677;SDS011;12800;53.094;8.778;2022-10-16T11:12:10;4.55;;;1.80;;
24677;SDS011;12800;53.094;8.778;2022-10-16T11:17:35;3.13;;;1.80;;
24677;SDS011;12800;53.094;8.778;2022-10-16T11:20:32;4.10;;;1.90;;
24677;SDS011;12800;53.094;8.778;2022-10-16T11:25:45;6.20;;;2.05;;
24677;SDS011;12800;53.094;8.778;2022-10-16T11:28:14;3.67;;;1.50;;
24677;SDS011;12800;53.094;8.778;2022-10-16T11:31:11;3.97;;;1.60;;
24677;SDS011;12800;53.094;8.778;2022-10-16T11:33:49;3.60;;;1.13;;
24677;SDS011;12800;53.094;8.778;2022-10-16T11:36:42;5.43;;;1.98;;
24677;SDS011;12800;53.094;8.778;2022-10-16T11:39:18;2.70;;;0.90;;
24677;SDS011;12800;53.094;8.778;2022-10-16T11:41:53;2.78;;;1.73;;
24677;SDS011;12800;53.094;8.778;2022-10-16T11:49:30;2.80;;;1.45;;
24677;SDS011;12800;53.094;8.778;2022-10-16T11:54:44;4.78;;;0.98;;
24677;SDS011;12800;53.094;8.778;2022-10-16T11:57:12;8.13;;;1.42;;
24677;SDS011;12800;53.094;8.778;2022-10-16T11:59:44;7.80;;;4.57;;
24677;SDS011;12800;53.094;8.778;2022-10-16T12:10:36;5.30;;;2.92;;
24677;SDS011;12800;53.094;8.778;2022-10-16T12:13:27;5.00;;;1.70;;
24677;SDS011;12800;53.094;8.778;2022-10-16T12:16:03;3.10;;;1.10;;
24677;SDS011;12800;53.094;8.778;2022-10-16T12:18:49;3.72;;;1.02;;
24677;SDS011;12800;53.094;8.778;2022-10-16T12:21:34;1.40;;;0.70;;
24677;SDS011;12800;53.094;8.778;2022-10-16T12:24:00;1.92;;;1.13;;
24677;SDS011;12800;53.094;8.778;2022-10-16T12:26:29;6.05;;;1.10;;
24677;SDS011;12800;53.094;8.778;2022-10-16T12:29:43;4.50;;;1.10;;
24677;SDS011;12800;53.094;8.778;2022-10-16T12:31:59;5.28;;;1.30;;
24677;SDS011;12800;53.094;8.778;2022-10-16T12:34:27;5.88;;;1.48;;
24677;SDS011;12800;53.094;8.778;2022-10-16T12:37:06;3.80;;;1.35;;
24677;SDS011;12800;53.094;8.778;2022-10-16T12:39:35;5.20;;;1.40;;
24677;SDS011;12800;53.094;8.778;2022-10-16T12:42:06;2.05;;;0.73;;
24677;SDS011;12800;53.094;8.778;2022-10-16T12:44:46;5.60;;;1.27;;
24677;SDS011;12800;53.094;8.778;2022-10-16T12:49:56;4.47;;;1.05;;
24677;SDS011;12800;53.094;8.778;2022-10-16T12:52:24;6.78;;;2.22;;
24677;SDS011;12800;53.094;8.778;2022-10-16T12:54:55;7.55;;;3.38;;
24677;SDS011;12800;53.094;8.778;2022-10-16T13:00:45;5.95;;;2.70;;
24677;SDS011;12800;53.094;8.778;2022-10-16T13:09:33;4.85;;;1.30;;
24677;SDS011;12800;53.094;8.778;2022-10-16T13:15:09;5.50;;;1.33;;
24677;SDS011;12800;53.094;8.778;2022-10-16T13:18:16;5.78;;;1.10;;
24677;SDS011;12800;53.094;8.778;2022-10-16T13:23:29;6.15;;;2.22;;
24677;SDS011;12800;53.094;8.778;2022-10-16T13:28:53;6.43;;;1.50;;
24677;SDS011;12800;53.094;8.778;2022-10-16T13:31:22;4.75;;;1.23;;
24677;SDS011;12800;53.094;8.778;2022-10-16T13:33:50;2.58;;;1.17;;
24677;SDS011;12800;53.094;8.778;2022-10-16T13:36:25;4.30;;;1.05;;
24677;SDS011;12800;53.094;8.778;2022-10-16T13:39:14;3.28;;;1.35;;
24677;SDS011;12800;53.094;8.778;2022-10-16T13:41:40;5.45;;;1.25;;
24677;SDS011;12800;53.094;8.778;2022-10-16T13:44:17;5.72;;;2.03;;
24677;SDS011;12800;53.094;8.778;2022-10-16T13:46:45;4.50;;;1.30;;
24677;SDS011;12800;53.094;8.778;2022-10-16T13:49:15;23.85;;;14.73;;
24677;SDS011;12800;53.094;8.778;2022-10-16T13:51:41;5.43;;;2.00;;
24677;SDS011;12800;53.094;8.778;2022-10-16T13:54:20;5.45;;;1.30;;
24677;SDS011;12800;53.094;8.778;2022-10-16T13:56:46;1.63;;;0.80;;
24677;SDS011;12800;53.094;8.778;2022-10-16T13:59:23;4.32;;;1.50;;
24677;SDS011;12800;53.094;8.778;2022-10-16T14:01:50;2.92;;;0.98;;
24677;SDS011;12800;53.094;8.778;2022-10-16T14:04:19;2.92;;;0.98;;
24677;SDS011;12800;53.094;8.778;2022-10-16T14:06:45;4.88;;;1.77;;
24677;SDS011;12800;53.094;8.778;2022-10-16T14:09:47;6.82;;;1.88;;
24677;SDS011;12800;53.094;8.778;2022-10-16T14:12:10;8.10;;;1.80;;
24677;SDS011;12800;53.094;8.778;2022-10-16T14:17:15;4.60;;;1.42;;
24677;SDS011;12800;53.094;8.778;2022-10-16T14:19:55;4.53;;;1.10;;
24677;SDS011;12800;53.094;8.778;2022-10-16T14:22:28;2.90;;;1.10;;
24677;SDS011;12800;53.094;8.778;2022-10-16T14:24:55;5.57;;;1.85;;
24677;SDS011;12800;53.094;8.778;2022-10-16T14:32:32;9.90;;;6.25;;
24677;SDS011;12800;53.094;8.778;2022-10-16T14:34:58;16.10;;;11.57;;
24677;SDS011;12800;53.094;8.778;2022-10-16T14:37:25;9.32;;;2.35;;
24677;SDS011;12800;53.094;8.778;2022-10-16T14:39:53;5.80;;;2.20;;
24677;SDS011;12800;53.094;8.778;2022-10-16T14:42:21;9.43;;;2.65;;
24677;SDS011;12800;53.094;8.778;2022-10-16T14:44:51;4.40;;;1.67;;
24677;SDS011;12800;53.094;8.778;2022-10-16T14:47:19;8.15;;;1.40;;
24677;SDS011;12800;53.094;8.778;2022-10-16T14:49:49;4.95;;;1.40;;
24677;SDS011;12800;53.094;8.778;2022-10-16T14:52:15;5.75;;;1.70;;
24677;SDS011;12800;53.094;8.778;2022-10-16T14:54:41;4.85;;;1.13;;
24677;SDS011;12800;53.094;8.778;2022-10-16T14:57:17;2.17;;;1.10;;
24677;SDS011;12800;53.094;8.778;2022-10-16T14:59:45;3.97;;;1.10;;
24677;SDS011;12800;53.094;8.778;2022-10-16T15:02:34;4.30;;;1.20;;
24677;SDS011;12800;53.094;8.778;2022-10-16T15:05:07;4.13;;;1.60;;
24677;SDS011;12800;53.094;8.778;2022-10-16T15:07:47;4.50;;;1.45;;
24677;SDS011;12800;53.094;8.778;2022-10-16T15:10:14;3.78;;;1.30;;
24677;SDS011;12800;53.094;8.778;2022-10-16T15:12:41;2.67;;;1.38;;
24677;SDS011;12800;53.094;8.778;2022-10-16T15:17:55;7.47;;;1.80;;
24677;SDS011;12800;53.094;8.778;2022-10-16T15:20:25;7.10;;;3.13;;
24677;SDS011;12800;53.094;8.778;2022-10-16T15:23:13;6.03;;;1.90;;
24677;SDS011;12800;53.094;8.778;2022-10-16T15:25:42;4.13;;;1.30;;
24677;SDS011;12800;53.094;8.778;2022-10-16T15:28:13;5.40;;;1.88;;
24677;SDS011;12800;53.094;8.778;2022-10-16T15:30:40;7.63;;;2.33;;
24677;SDS011;12800;53.094;8.778;2022-10-16T15:33:10;6.60;;;1.60;;
24677;SDS011;12800;53.094;8.778;2022-10-16T15:35:38;8.02;;;3.22;;
24677;SDS011;12800;53.094;8.778;2022-10-16T15:38:04;33.70;;;21.88;;
24677;SDS011;12800;53.094;8.778;2022-10-16T15:40:29;9.25;;;3.67;;
24677;SDS011;12800;53.094;8.778;2022-10-16T15:42:55;3.85;;;2.10;;
24677;SDS011;12800;53.094;8.778;2022-10-16T15:45:21;6.20;;;2.08;;
24677;SDS011;12800;53.094;8.778;2022-10-16T15:47:47;4.72;;;1.95;;
24677;SDS011;12800;53.094;8.778;2022-10-16T15:50:14;4.90;;;2.17;;
24677;SDS011;12800;53.094;8.778;2022-10-16T15:52:40;6.50;;;2.15;;
24677;SDS011;12800;53.094;8.778;2022-10-16T15:55:07;6.57;;;1.63;;
24677;SDS011;12800;53.094;8.778;2022-10-16T15:57:35;3.72;;;2.00;;
24677;SDS011;12800;53.094;8.778;2022-10-16T16:00:04;9.88;;;4.00;;
24677;SDS011;12800;53.094;8.778;2022-10-16T16:02:31;6.97;;;3.33;;
24677;SDS011;12800;53.094;8.778;2022-10-16T16:04:57;7.45;;;2.38;;
24677;SDS011;12800;53.094;8.778;2022-10-16T16:07:22;6.63;;;1.80;;
24677;SDS011;12800;53.094;8.778;2022-10-16T16:09:48;4.45;;;2.53;;
24677;SDS011;12800;53.094;8.778;2022-10-16T16:12:14;8.13;;;2.03;;
24677;SDS011;12800;53.094;8.778;2022-10-16T16:14:40;6.68;;;1.80;;
24677;SDS011;12800;53.094;8.778;2022-10-16T16:17:05;5.25;;;1.80;;
24677;SDS011;12800;53.094;8.778;2022-10-16T16:19:32;4.80;;;1.80;;
24677;SDS011;12800;53.094;8.778;2022-10-16T16:21:58;8.88;;;1.88;;
24677;SDS011;12800;53.094;8.778;2022-10-16T16:24:23;5.05;;;1.55;;
24677;SDS011;12800;53.094;8.778;2022-10-16T16:26:49;7.78;;;1.98;;
24677;SDS011;12800;53.094;8.778;2022-10-16T16:29:15;12.57;;;5.85;;
24677;SDS011;12800;53.094;8.778;2022-10-16T16:31:40;42.20;;;27.58;;
24677;SDS011;12800;53.094;8.778;2022-10-16T16:34:07;13.30;;;7.82;;
24677;SDS011;12800;53.094;8.778;2022-10-16T16:36:34;14.82;;;7.32;;
24677;SDS011;12800;53.094;8.778;2022-10-16T16:38:59;14.60;;;6.47;;
24677;SDS011;12800;53.094;8.778;2022-10-16T16:41:26;11.27;;;6.18;;
24677;SDS011;12800;53.094;8.778;2022-10-16T16:43:54;12.10;;;7.28;;
24677;SDS011;12800;53.094;8.778;2022-10-16T16:46:20;10.27;;;5.40;;
24677;SDS011;12800;53.094;8.778;2022-10-16T16:48:46;8.93;;;5.00;;
24677;SDS011;12800;53.094;8.778;2022-10-16T16:51:15;8.20;;;4.43;;
24677;SDS011;12800;53.094;8.778;2022-10-16T16:53:48;10.55;;;4.35;;
24677;SDS011;12800;53.094;8.778;2022-10-16T16:56:15;10.40;;;5.25;;
24677;SDS011;12800;53.094;8.778;2022-10-16T16:58:44;8.13;;;4.90;;